Time;durP1;ratioP1;P1;durP2;ratioP2;P2;SDS_P1;SDS_P2;PMS_P1;PMS_P2;Temp;Humidity;BMP_temperature;BMP_pressure;BME280_temperature;BME280_humidity;BME280_pressure;Samples;Min_cycle;Max_cycle;Signal;HPM_P1;HPM_P2
2022/11/21 00:00:34;;;;;;;19.23;11.88;;;1.70;99.90;;;;;;4782733;29;20054;-87
2022/11/21 00:03:05;;;;;;;17.70;12.05;;;1.70;99.90;;;;;;4763787;29;20417;-88
2022/11/21 00:05:32;;;;;;;16.08;11.65;;;1.70;99.90;;;;;;4811135;29;20359;-87
2022/11/21 00:07:58;;;;;;;19.85;12.75;;;3.00;99.90;;;;;;4786344;29;20077;-87
2022/11/21 00:10:25;;;;;;;18.08;11.25;;;3.50;99.90;;;;;;4779810;29;20501;-88
2022/11/21 00:12:56;;;;;;;19.35;12.20;;;2.00;99.90;;;;;;4794445;29;20059;-88
2022/11/21 00:15:23;;;;;;;18.40;12.18;;;3.60;99.90;;;;;;4794825;29;20488;-85
2022/11/21 00:17:49;;;;;;;19.88;12.15;;;1.30;99.90;;;;;;4782603;29;20051;-87
2022/11/21 00:20:17;;;;;;;17.55;11.63;;;1.80;99.90;;;;;;4783138;29;20098;-86
2022/11/21 00:22:43;;;;;;;21.75;12.98;;;1.90;99.90;;;;;;4813301;29;20058;-86
2022/11/21 00:25:09;;;;;;;19.50;12.48;;;3.40;99.90;;;;;;4781715;29;20124;-87
2022/11/21 00:27:35;;;;;;;18.30;11.73;;;;;;;;;;4766038;29;20106;-87
2022/11/21 00:30:01;;;;;;;18.42;12.55;;;1.60;99.90;;;;;;4797579;29;20046;-86
2022/11/21 00:32:27;;;;;;;18.23;12.15;;;1.60;99.90;;;;;;4767833;29;20053;-88
2022/11/21 00:34:52;;;;;;;17.67;12.68;;;1.80;99.90;;;;;;4783235;29;20055;-86
2022/11/21 00:37:21;;;;;;;20.02;11.73;;;1.70;99.90;;;;;;4771279;29;20043;-87
2022/11/21 00:39:47;;;;;;;20.55;12.93;;;1.70;99.90;;;;;;4767132;29;20067;-87
2022/11/21 00:42:15;;;;;;;17.55;12.07;;;1.60;99.90;;;;;;4778270;29;20131;-87
2022/11/21 00:44:41;;;;;;;19.38;12.45;;;1.50;99.90;;;;;;4779396;29;20058;-87
2022/11/21 00:47:09;;;;;;;17.45;12.85;;;1.50;99.90;;;;;;4793126;29;20059;-88
2022/11/21 00:49:38;;;;;;;18.85;12.05;;;-0.10;99.90;;;;;;4780288;29;20059;-87
2022/11/21 00:52:03;;;;;;;18.77;11.77;;;1.50;99.90;;;;;;4776439;29;20046;-87
2022/11/21 00:54:29;;;;;;;19.58;12.07;;;3.00;99.90;;;;;;4793146;29;20129;-87
2022/11/21 00:56:55;;;;;;;18.50;11.80;;;1.80;99.90;;;;;;4796683;29;20134;-87
2022/11/21 00:59:21;;;;;;;19.67;12.23;;;3.60;99.90;;;;;;4785635;29;20466;-87
2022/11/21 01:01:47;;;;;;;21.20;12.00;;;1.60;99.90;;;;;;4768321;29;20134;-87
2022/11/21 01:04:13;;;;;;;20.15;12.18;;;3.30;99.90;;;;;;4794583;29;20058;-86
2022/11/21 01:06:39;;;;;;;19.25;12.38;;;1.50;99.90;;;;;;4792954;29;20346;-85
2022/11/21 01:09:05;;;;;;;18.58;12.30;;;1.40;99.90;;;;;;4775350;29;20073;-87
2022/11/21 01:11:31;;;;;;;21.70;13.18;;;1.80;99.90;;;;;;4799757;29;20046;-87
2022/11/21 01:13:59;;;;;;;18.77;12.20;;;3.20;99.90;;;;;;4795678;29;20054;-85
2022/11/21 01:16:27;;;;;;;18.83;12.88;;;3.50;99.90;;;;;;4781905;29;20516;-87
2022/11/21 01:18:53;;;;;;;17.63;12.10;;;1.70;99.90;;;;;;4796279;29;20066;-86
2022/11/21 01:21:27;;;;;;;18.90;12.30;;;1.80;99.90;;;;;;4812530;29;20494;-87
2022/11/21 01:23:53;;;;;;;18.58;12.20;;;2.50;99.90;;;;;;4795272;29;20077;-87
2022/11/21 01:26:21;;;;;;;18.92;11.70;;;3.60;99.90;;;;;;4779679;29;20106;-88
2022/11/21 01:28:51;;;;;;;18.55;12.00;;;1.50;99.90;;;;;;4794885;29;20104;-87
2022/11/21 01:31:22;;;;;;;20.35;12.63;;;3.30;99.90;;;;;;4776487;29;20077;-87
2022/11/21 01:33:51;;;;;;;18.92;12.82;;;3.20;99.90;;;;;;4792085;29;20062;-86
2022/11/21 01:36:20;;;;;;;20.00;12.43;;;3.10;99.90;;;;;;4751296;29;20051;-87
2022/11/21 01:38:48;;;;;;;19.60;12.35;;;3.30;99.90;;;;;;4778816;29;20054;-87
2022/11/21 01:41:17;;;;;;;19.15;11.52;;;2.80;99.90;;;;;;4795285;29;20066;-85
2022/11/21 01:43:43;;;;;;;19.42;12.65;;;1.80;99.90;;;;;;4780770;29;20150;-87
2022/11/21 01:46:38;;;;;;;19.27;13.10;;;3.20;99.90;;;;;;4797384;29;20062;-87
2022/11/21 01:49:19;;;;;;;17.13;11.48;;;1.50;99.90;;;;;;4787656;29;20069;-87
2022/11/21 01:51:48;;;;;;;20.42;13.50;;;1.50;99.90;;;;;;4762364;29;20073;-87
2022/11/21 01:54:33;;;;;;;18.38;12.45;;;2.90;99.90;;;;;;4795089;29;20051;-86
2022/11/21 01:57:18;;;;;;;16.73;11.38;;;2.70;99.90;;;;;;4778331;29;20054;-88
2022/11/21 01:59:46;;;;;;;21.17;13.20;;;1.40;99.90;;;;;;4778964;29;20075;-87
2022/11/21 02:02:15;;;;;;;19.52;12.88;;;1.30;99.90;;;;;;4794328;29;20054;-88
2022/11/21 02:04:43;;;;;;;21.50;12.88;;;1.20;99.90;;;;;;4778555;29;20067;-86
2022/11/21 02:07:12;;;;;;;18.02;12.07;;;2.90;99.90;;;;;;4806631;29;20663;-87
2022/11/21 02:09:47;;;;;;;19.58;12.93;;;3.20;99.90;;;;;;4787780;29;20051;-87
2022/11/21 02:12:34;;;;;;;18.75;12.63;;;0.10;99.90;;;;;;4789073;29;20058;-87
2022/11/21 02:15:01;;;;;;;19.38;12.65;;;1.30;99.90;;;;;;4779895;29;20563;-88
2022/11/21 02:17:31;;;;;;;18.70;11.73;;;1.50;99.90;;;;;;4767649;29;20050;-87
2022/11/21 02:20:00;;;;;;;19.38;12.40;;;0.40;99.90;;;;;;4797913;29;20054;-87
2022/11/21 02:22:32;;;;;;;20.60;12.98;;;3.20;99.90;;;;;;4785953;29;20137;-87
2022/11/21 02:24:59;;;;;;;18.90;12.57;;;1.20;99.90;;;;;;4795164;29;20053;-87
2022/11/21 02:27:25;;;;;;;19.23;12.80;;;3.00;99.90;;;;;;4795444;29;20054;-85
2022/11/21 02:29:51;;;;;;;21.15;12.77;;;1.50;99.90;;;;;;4783079;29;20058;-86
2022/11/21 02:32:22;;;;;;;20.05;13.00;;;0.20;99.90;;;;;;4784375;29;20103;-87
2022/11/21 02:34:47;;;;;;;19.80;12.40;;;2.40;99.90;;;;;;4794532;29;20062;-87
2022/11/21 02:37:14;;;;;;;20.38;13.30;;;3.30;99.90;;;;;;4765087;29;20081;-86
2022/11/21 02:39:40;;;;;;;18.83;12.02;;;2.10;99.90;;;;;;4794983;29;20055;-86
2022/11/21 02:42:33;;;;;;;19.00;12.13;;;1.30;99.90;;;;;;4781123;29;20503;-86
2022/11/21 02:45:14;;;;;;;19.33;12.65;;;1.50;99.90;;;;;;4786555;29;20058;-86
2022/11/21 02:47:44;;;;;;;19.52;12.15;;;1.90;99.90;;;;;;4781091;29;20054;-86
2022/11/21 02:50:22;;;;;;;20.33;12.65;;;3.30;99.90;;;;;;4785110;29;20511;-86
2022/11/21 02:52:48;;;;;;;22.88;12.90;;;1.10;99.90;;;;;;4798448;29;20417;-86
2022/11/21 02:55:14;;;;;;;19.98;13.02;;;3.10;99.90;;;;;;4785197;29;20043;-88
2022/11/21 02:57:41;;;;;;;20.52;12.85;;;1.30;99.90;;;;;;4775658;29;20070;-86
2022/11/21 03:00:08;;;;;;;20.42;12.55;;;1.50;99.90;;;;;;4814620;29;20050;-87
2022/11/21 03:02:34;;;;;;;20.90;12.90;;;1.00;99.90;;;;;;4781731;29;20073;-87
2022/11/21 03:05:01;;;;;;;19.77;12.15;;;1.50;99.90;;;;;;4791425;29;20050;-86
2022/11/21 03:07:29;;;;;;;19.00;12.70;;;2.70;99.90;;;;;;4800479;29;20512;-87
2022/11/21 03:09:55;;;;;;;18.77;12.20;;;3.00;99.90;;;;;;4771538;29;20081;-86
2022/11/21 03:12:21;;;;;;;19.23;12.50;;;2.90;99.90;;;;;;4784459;29;20058;-86
2022/11/21 03:14:47;;;;;;;19.50;12.57;;;1.00;99.90;;;;;;4788534;29;20054;-86
2022/11/21 03:17:13;;;;;;;19.20;11.88;;;2.90;99.90;;;;;;4770410;29;20085;-86
2022/11/21 03:19:39;;;;;;;23.73;13.15;;;0.90;99.90;;;;;;4782536;29;20094;-86
2022/11/21 03:22:05;;;;;;;19.95;13.45;;;-0.20;99.90;;;;;;4783917;29;20061;-86
2022/11/21 03:24:30;;;;;;;19.55;12.63;;;2.60;99.90;;;;;;4787157;29;20089;-86
2022/11/21 03:26:56;;;;;;;22.17;13.13;;;2.30;99.90;;;;;;4774738;29;20055;-87
2022/11/21 03:29:22;;;;;;;20.27;12.82;;;;;;;;;;4772517;29;20387;-87
2022/11/21 03:31:48;;;;;;;21.75;13.43;;;;;;;;;;4799956;29;21029;-86
2022/11/21 03:34:15;;;;;;;19.40;12.13;;;;;;;;;;4795964;29;20061;-86
2022/11/21 03:36:40;;;;;;;22.23;13.15;;;0.70;99.90;;;;;;4805633;29;20732;-85
2022/11/21 03:39:07;;;;;;;20.92;13.60;;;2.90;99.90;;;;;;4802151;29;20058;-87
2022/11/21 03:41:32;;;;;;;19.77;12.55;;;2.50;99.90;;;;;;4799520;29;20054;-85
2022/11/21 03:44:07;;;;;;;23.35;13.80;;;2.70;99.90;;;;;;4783132;29;20062;-86
2022/11/21 03:46:38;;;;;;;21.90;13.32;;;0.60;99.90;;;;;;4786350;29;20288;-86
2022/11/21 03:49:05;;;;;;;26.85;14.68;;;0.60;99.90;;;;;;4782949;29;20065;-86
2022/11/21 03:51:31;;;;;;;22.08;14.13;;;0.00;99.90;;;;;;4785029;29;20062;-86
2022/11/21 03:53:58;;;;;;;20.13;12.45;;;2.10;99.90;;;;;;4786375;29;20137;-85
2022/11/21 03:56:24;;;;;;;23.75;14.10;;;-0.70;99.90;;;;;;4797773;29;20081;-87
2022/11/21 03:58:50;;;;;;;22.83;14.57;;;0.70;99.90;;;;;;4796914;29;20055;-86
2022/11/21 04:01:16;;;;;;;20.48;13.40;;;0.50;99.90;;;;;;4790182;29;20065;-87
2022/11/21 04:03:43;;;;;;;22.40;14.18;;;0.60;99.90;;;;;;4810449;29;20054;-85
2022/11/21 04:06:10;;;;;;;20.38;13.65;;;2.80;99.90;;;;;;4771649;29;20057;-85
2022/11/21 04:08:36;;;;;;;21.38;13.50;;;2.70;99.90;;;;;;4785452;29;20140;-87
2022/11/21 04:11:02;;;;;;;22.95;13.60;;;1.90;99.90;;;;;;4781908;29;20103;-86
2022/11/21 04:13:28;;;;;;;20.83;12.80;;;2.00;99.90;;;;;;4789013;29;20390;-85
2022/11/21 04:15:54;;;;;;;21.42;13.20;;;0.70;99.90;;;;;;4797436;29;20058;-87
2022/11/21 04:18:20;;;;;;;21.48;13.02;;;2.10;99.90;;;;;;4783343;29;20410;-86
2022/11/21 04:20:46;;;;;;;21.25;12.82;;;;;;;;;;4795624;29;20095;-85
2022/11/21 04:23:12;;;;;;;22.15;14.15;;;0.10;99.90;;;;;;4800239;29;20062;-87
2022/11/21 04:25:46;;;;;;;22.15;13.93;;;1.10;99.90;;;;;;4797304;29;20217;-86
2022/11/21 04:28:13;;;;;;;21.48;13.18;;;0.00;99.90;;;;;;4785353;29;20130;-86
2022/11/21 04:30:42;;;;;;;23.63;14.10;;;0.70;99.90;;;;;;4784920;29;20054;-86
2022/11/21 04:33:08;;;;;;;20.13;12.15;;;1.00;99.90;;;;;;4800084;29;20576;-86
2022/11/21 04:35:34;;;;;;;22.88;13.23;;;1.80;99.90;;;;;;4781591;29;20093;-87
2022/11/21 04:38:00;;;;;;;23.92;13.50;;;1.80;99.90;;;;;;4798264;29;20054;-87
2022/11/21 04:40:25;;;;;;;21.83;13.45;;;0.30;99.90;;;;;;4795366;29;20165;-87
2022/11/21 04:42:51;;;;;;;25.95;14.60;;;0.10;99.90;;;;;;4798346;29;20059;-86
2022/11/21 04:45:17;;;;;;;24.00;13.90;;;0.00;99.90;;;;;;4769354;29;20082;-86
2022/11/21 04:47:45;;;;;;;23.08;13.13;;;1.40;99.90;;;;;;4795567;29;20424;-86
2022/11/21 04:50:13;;;;;;;23.23;15.07;;;-0.10;99.90;;;;;;4797592;29;20051;-87
2022/11/21 04:52:42;;;;;;;25.35;14.30;;;1.40;99.90;;;;;;4782750;29;20138;-86
2022/11/21 04:55:09;;;;;;;22.23;15.05;;;0.80;99.90;;;;;;4794407;29;20047;-87
2022/11/21 04:57:35;;;;;;;26.45;14.70;;;-0.50;99.90;;;;;;4783111;29;20055;-85
2022/11/21 05:00:00;;;;;;;24.73;15.40;;;0.00;99.90;;;;;;4813260;29;20121;-86
2022/11/21 05:02:26;;;;;;;28.67;16.63;;;0.90;99.90;;;;;;4780349;29;20054;-87
2022/11/21 05:04:52;;;;;;;30.73;16.65;;;1.80;99.90;;;;;;4795005;29;20062;-86
2022/11/21 05:07:18;;;;;;;30.15;15.65;;;1.40;99.90;;;;;;4781817;29;20065;-87
2022/11/21 05:09:44;;;;;;;28.42;15.45;;;2.70;99.90;;;;;;4798260;29;20439;-86
2022/11/21 05:14:57;;;;;;;27.13;14.52;;;0.30;99.90;;;;;;4811834;29;20129;-86
2022/11/21 05:17:23;;;;;;;29.00;14.90;;;0.40;99.90;;;;;;4780753;29;20054;-86
2022/11/21 05:19:48;;;;;;;25.88;14.65;;;0.50;99.90;;;;;;4793543;29;20069;-86
2022/11/21 05:22:17;;;;;;;25.38;14.02;;;0.70;99.90;;;;;;4768036;29;20058;-85
2022/11/21 05:24:42;;;;;;;26.27;12.70;;;-1.30;99.90;;;;;;4794934;29;20063;-87
2022/11/21 05:27:08;;;;;;;24.52;12.43;;;1.00;99.90;;;;;;4797822;29;20043;-85
2022/11/21 05:29:34;;;;;;;23.92;13.07;;;-1.00;99.90;;;;;;4772516;29;20058;-85
2022/11/21 05:32:00;;;;;;;25.33;12.77;;;0.50;99.90;;;;;;4794935;29;20054;-86
2022/11/21 05:34:26;;;;;;;24.15;11.98;;;2.00;99.90;;;;;;4784563;29;20103;-85
2022/11/21 05:36:57;;;;;;;24.23;12.35;;;2.10;99.90;;;;;;4769400;29;20090;-86
2022/11/21 05:39:26;;;;;;;24.65;11.73;;;0.70;99.90;;;;;;4795120;29;20183;-87
2022/11/21 05:41:52;;;;;;;23.23;11.70;;;-1.00;99.90;;;;;;4813461;29;20054;-86
2022/11/21 05:44:18;;;;;;;22.40;11.85;;;2.60;99.90;;;;;;4798105;29;20069;-85
2022/11/21 05:46:45;;;;;;;20.98;11.93;;;0.70;99.90;;;;;;4780188;29;20091;-84
2022/11/21 05:49:12;;;;;;;22.67;12.07;;;0.70;99.90;;;;;;4798179;29;20058;-86
2022/11/21 05:51:38;;;;;;;25.80;11.65;;;0.90;99.90;;;;;;4797626;29;20058;-87
2022/11/21 05:54:04;;;;;;;20.58;12.23;;;2.50;99.90;;;;;;4796767;29;20042;-86
2022/11/21 05:56:31;;;;;;;22.38;11.38;;;0.70;99.90;;;;;;4782042;29;20054;-86
2022/11/21 05:58:57;;;;;;;19.92;11.10;;;1.00;99.90;;;;;;4798293;29;20066;-86
2022/11/21 06:04:09;;;;;;;24.60;12.13;;;2.70;99.90;;;;;;4797603;29;20054;-85
2022/11/21 06:06:35;;;;;;;21.85;10.65;;;2.70;99.90;;;;;;4783698;29;20050;-85
2022/11/21 06:09:02;;;;;;;20.70;10.75;;;0.70;99.90;;;;;;4781502;29;20413;-85
2022/11/21 06:11:28;;;;;;;22.45;11.65;;;1.10;99.90;;;;;;4782281;29;20054;-86
2022/11/21 06:13:54;;;;;;;21.75;11.73;;;1.50;99.90;;;;;;4769790;29;20047;-86
2022/11/21 06:16:20;;;;;;;25.08;11.85;;;-0.80;99.90;;;;;;4779348;29;20058;-85
2022/11/21 06:18:51;;;;;;;23.17;11.65;;;2.30;99.90;;;;;;4781080;29;20574;-86
2022/11/21 06:21:22;;;;;;;21.58;11.73;;;0.90;99.90;;;;;;4779191;29;20090;-86
2022/11/21 06:23:53;;;;;;;23.05;11.40;;;0.90;99.90;;;;;;4792660;29;20540;-87
2022/11/21 06:26:24;;;;;;;19.63;10.80;;;2.90;99.90;;;;;;4793086;29;20133;-87
2022/11/21 06:28:51;;;;;;;24.60;11.80;;;2.60;99.90;;;;;;4797198;29;20092;-86
2022/11/21 06:31:19;;;;;;;22.77;11.32;;;0.90;99.90;;;;;;4787646;29;20106;-87
2022/11/21 06:33:46;;;;;;;22.85;12.05;;;2.10;99.90;;;;;;4794999;29;20628;-85
2022/11/21 06:36:14;;;;;;;22.65;10.68;;;0.80;99.90;;;;;;4778452;29;20061;-86
2022/11/21 06:38:40;;;;;;;22.35;11.55;;;2.40;99.90;;;;;;4792689;29;20061;-86
2022/11/21 06:41:12;;;;;;;24.20;11.73;;;2.90;99.90;;;;;;4798629;29;20828;-86
2022/11/21 06:43:39;;;;;;;26.80;11.57;;;1.00;99.90;;;;;;4796289;29;20093;-86
2022/11/21 06:46:05;;;;;;;25.02;11.82;;;0.90;99.90;;;;;;4781205;29;20046;-86
2022/11/21 06:48:32;;;;;;;26.25;11.55;;;1.00;99.90;;;;;;4795457;29;20054;-85
2022/11/21 06:51:02;;;;;;;47.20;12.70;;;1.10;99.90;;;;;;4781288;29;20119;-86
2022/11/21 06:53:28;;;;;;;28.20;12.00;;;-0.30;99.90;;;;;;4812916;29;20050;-86
2022/11/21 06:55:58;;;;;;;25.85;11.70;;;2.90;99.90;;;;;;4794830;29;20054;-86
2022/11/21 06:58:24;;;;;;;29.75;11.80;;;0.90;99.90;;;;;;4780168;29;20045;-86
2022/11/21 07:00:50;;;;;;;25.45;11.88;;;2.10;99.90;;;;;;4787884;29;20050;-86
2022/11/21 07:03:17;;;;;;;29.70;12.35;;;2.90;99.90;;;;;;4783594;29;20099;-85
2022/11/21 07:05:45;;;;;;;40.75;11.75;;;;;;;;;;4789631;29;20181;-87
2022/11/21 07:08:11;;;;;;;26.45;10.63;;;0.90;99.90;;;;;;4800199;29;20066;-84
2022/11/21 07:10:37;;;;;;;28.02;10.88;;;2.50;99.90;;;;;;4785809;29;20054;-87
2022/11/21 07:13:21;;;;;;;27.85;10.98;;;1.10;99.90;;;;;;4787957;29;20062;-85
2022/11/21 07:15:51;;;;;;;24.75;9.85;;;1.30;99.90;;;;;;4775494;29;20050;-86
2022/11/21 07:18:17;;;;;;;24.00;9.95;;;2.30;99.90;;;;;;4804364;29;20058;-86
2022/11/21 07:20:43;;;;;;;21.35;9.88;;;0.80;99.90;;;;;;4802227;29;20050;-85
2022/11/21 07:23:09;;;;;;;26.80;10.20;;;2.60;99.90;;;;;;4789439;29;20050;-85
2022/11/21 07:25:35;;;;;;;25.90;10.60;;;1.30;99.90;;;;;;4786609;29;20055;-86
2022/11/21 07:28:02;;;;;;;29.25;11.30;;;-0.60;99.90;;;;;;4786455;29;20055;-87
2022/11/21 07:30:28;;;;;;;29.40;11.25;;;3.00;99.90;;;;;;4785201;29;20077;-86
2022/11/21 07:32:56;;;;;;;39.40;11.65;;;2.70;99.90;;;;;;4812264;29;20096;-86
2022/11/21 07:35:22;;;;;;;37.17;11.80;;;2.40;99.90;;;;;;4800515;29;20054;-86
2022/11/21 07:37:48;;;;;;;31.05;10.60;;;;;;;;;;4785522;29;20051;-85
2022/11/21 07:40:14;;;;;;;25.45;10.55;;;1.00;99.90;;;;;;4787198;29;20078;-85
2022/11/21 07:42:43;;;;;;;30.75;11.70;;;3.00;99.90;;;;;;4796678;29;20101;-86
2022/11/21 07:45:10;;;;;;;21.88;10.35;;;1.20;99.90;;;;;;4816130;29;20084;-85
2022/11/21 07:47:36;;;;;;;23.27;10.88;;;1.00;99.90;;;;;;4787379;29;20059;-85
2022/11/21 07:50:02;;;;;;;21.65;10.52;;;1.20;99.90;;;;;;4792038;29;20497;-86
2022/11/21 07:52:29;;;;;;;19.40;9.98;;;1.40;99.90;;;;;;4786596;29;20094;-86
2022/11/21 07:54:55;;;;;;;22.15;10.93;;;1.00;99.90;;;;;;4786347;29;20062;-85
2022/11/21 07:57:22;;;;;;;31.13;11.15;;;3.00;99.90;;;;;;4785211;29;20069;-85
2022/11/21 07:59:48;;;;;;;22.92;10.52;;;2.80;99.90;;;;;;4800684;29;20180;-86
2022/11/21 08:02:22;;;;;;;23.15;10.70;;;1.90;99.90;;;;;;4785604;29;20718;-84
2022/11/21 08:04:48;;;;;;;21.50;10.63;;;1.10;99.90;;;;;;4799567;29;20054;-85
2022/11/21 08:07:18;;;;;;;20.60;10.15;;;3.20;99.90;;;;;;4784949;29;20057;-86
2022/11/21 08:09:44;;;;;;;30.65;10.85;;;3.20;99.90;;;;;;4785331;29;20059;-87
2022/11/21 08:12:11;;;;;;;27.13;11.18;;;1.50;99.90;;;;;;4799961;29;20065;-85
2022/11/21 08:14:37;;;;;;;25.15;10.77;;;1.40;99.90;;;;;;4783939;29;20057;-85
2022/11/21 08:17:06;;;;;;;22.85;10.98;;;1.20;99.90;;;;;;4784822;29;20053;-86
2022/11/21 08:19:32;;;;;;;30.85;11.02;;;3.30;99.90;;;;;;4796958;29;20059;-85
2022/11/21 08:21:58;;;;;;;25.17;11.07;;;3.20;99.90;;;;;;4782150;29;20093;-86
2022/11/21 08:24:24;;;;;;;26.33;11.15;;;2.90;99.90;;;;;;4785924;29;20137;-87
2022/11/21 08:26:50;;;;;;;22.38;10.50;;;2.60;99.90;;;;;;4787606;29;20475;-86
2022/11/21 08:29:16;;;;;;;22.75;9.75;;;3.00;99.90;;;;;;4816229;29;20058;-86
2022/11/21 08:31:43;;;;;;;21.17;9.73;;;2.40;99.90;;;;;;4784255;29;20492;-85
2022/11/21 08:34:12;;;;;;;20.08;10.13;;;1.60;99.90;;;;;;4812295;29;20058;-87
2022/11/21 08:36:38;;;;;;;18.92;9.32;;;3.00;99.90;;;;;;4780068;29;20050;-86
2022/11/21 08:39:04;;;;;;;22.25;9.93;;;0.80;99.90;;;;;;4784328;29;20127;-87
2022/11/21 08:44:14;;;;;;;19.42;9.75;;;1.80;99.90;;;;;;4796759;29;20054;-85
2022/11/21 08:46:40;;;;;;;19.98;9.52;;;1.60;99.90;;;;;;4781708;29;20072;-87
2022/11/21 08:49:07;;;;;;;17.15;8.88;;;1.60;99.90;;;;;;4790073;29;20413;-87
2022/11/21 08:51:34;;;;;;;17.33;10.02;;;3.60;99.90;;;;;;4797935;29;20450;-86
2022/11/21 08:54:00;;;;;;;17.65;9.25;;;3.40;99.90;;;;;;4768678;29;20062;-87
2022/11/21 08:56:26;;;;;;;17.63;8.68;;;1.80;99.90;;;;;;4784491;29;20149;-86
2022/11/21 08:58:55;;;;;;;19.10;9.90;;;1.70;99.90;;;;;;4787056;29;20061;-85
2022/11/21 09:01:21;;;;;;;18.33;9.02;;;;;;;;;;4799678;29;20559;-87
2022/11/21 09:03:47;;;;;;;16.63;8.27;;;1.70;99.90;;;;;;4798820;29;20129;-87
2022/11/21 09:06:15;;;;;;;17.55;8.80;;;1.80;99.90;;;;;;4797785;29;20485;-85
2022/11/21 09:08:42;;;;;;;17.77;9.20;;;;;;;;;;4799699;29;20103;-86
2022/11/21 09:11:09;;;;;;;17.67;8.63;;;1.80;99.90;;;;;;4786578;29;20062;-85
2022/11/21 09:13:35;;;;;;;15.73;8.93;;;3.40;99.90;;;;;;4799359;29;20481;-86
2022/11/21 09:18:47;;;;;;;15.60;8.85;;;2.70;99.90;;;;;;4810311;29;20069;-85
2022/11/21 09:21:17;;;;;;;16.85;9.48;;;2.00;99.90;;;;;;4797104;29;20061;-85
2022/11/21 09:23:45;;;;;;;15.18;8.20;;;2.20;99.90;;;;;;4783110;29;20054;-84
2022/11/21 09:26:11;;;;;;;14.55;8.73;;;2.90;99.90;;;;;;4768129;29;20057;-87
2022/11/21 09:28:37;;;;;;;17.38;8.98;;;2.90;99.90;;;;;;4784745;29;20062;-85
2022/11/21 09:31:04;;;;;;;15.52;8.63;;;2.90;99.90;;;;;;4783700;29;20054;-86
2022/11/21 09:33:30;;;;;;;18.73;8.80;;;4.10;99.90;;;;;;4795443;29;20645;-86
2022/11/21 09:36:00;;;;;;;14.85;8.32;;;4.50;99.90;;;;;;4783014;29;20062;-86
2022/11/21 09:38:26;;;;;;;17.05;9.02;;;4.00;99.90;;;;;;4799168;29;20056;-86
2022/11/21 09:41:50;;;;;;;15.27;9.13;;;4.30;99.90;;;;;;4782058;29;20225;-87
2022/11/21 09:44:09;;;;;;;14.95;8.45;;;3.80;99.90;;;;;;4795830;29;20069;-87
2022/11/21 09:46:43;;;;;;;18.83;9.45;;;3.70;99.90;;;;;;4788056;29;20081;-87
2022/11/21 09:49:12;;;;;;;17.40;9.02;;;2.70;99.90;;;;;;4798224;29;20057;-87
2022/11/21 09:51:42;;;;;;;16.52;9.20;;;4.30;99.90;;;;;;4778520;29;20111;-87
2022/11/21 09:54:22;;;;;;;16.00;9.07;;;1.00;99.90;;;;;;4796179;29;20062;-85
2022/11/21 09:56:51;;;;;;;18.00;9.57;;;2.80;99.90;;;;;;4800810;29;20356;-83
2022/11/21 09:59:17;;;;;;;18.40;9.38;;;4.60;99.90;;;;;;4777136;29;20118;-86
2022/11/21 10:01:43;;;;;;;14.88;9.25;;;4.60;99.90;;;;;;4781753;29;20062;-86
2022/11/21 10:04:09;;;;;;;18.67;10.48;;;2.80;99.90;;;;;;4782425;29;20569;-86
2022/11/21 10:07:03;;;;;;;15.93;9.48;;;2.60;99.90;;;;;;4778185;29;20046;-87
2022/11/21 10:09:32;;;;;;;15.77;9.18;;;3.00;99.90;;;;;;4797147;29;20597;-87
2022/11/21 10:15:31;;;;;;;17.48;9.30;;;3.10;99.90;;;;;;4792738;29;20050;-86
2022/11/21 10:18:23;;;;;;;14.00;7.95;;;2.90;99.90;;;;;;4798414;29;20046;-86
2022/11/21 10:21:17;;;;;;;15.00;8.15;;;3.00;99.90;;;;;;4798876;29;20062;-86
2022/11/21 10:23:59;;;;;;;15.35;8.30;;;3.00;99.90;;;;;;4796831;29;20058;-87
2022/11/21 10:26:48;;;;;;;16.38;8.98;;;3.00;99.90;;;;;;4784048;29;20063;-86
2022/11/21 10:29:23;;;;;;;16.52;8.40;;;3.10;99.90;;;;;;4798230;29;20046;-86
2022/11/21 10:31:53;;;;;;;13.82;8.57;;;3.00;99.90;;;;;;4813074;29;20061;-86
2022/11/21 10:34:24;;;;;;;13.95;8.20;;;3.00;99.90;;;;;;4776363;29;20500;-86
2022/11/21 10:37:28;;;;;;;17.25;9.77;;;4.70;99.90;;;;;;4783332;29;20046;-86
2022/11/21 10:39:55;;;;;;;15.88;8.93;;;3.40;99.90;;;;;;4737321;29;20653;-85
2022/11/21 10:42:46;;;;;;;16.55;9.20;;;3.20;99.90;;;;;;4819586;29;20129;-87
2022/11/21 10:45:17;;;;;;;19.75;9.88;;;3.10;99.90;;;;;;4783609;29;20058;-86
2022/11/21 10:47:45;;;;;;;15.88;9.23;;;3.40;99.90;;;;;;4768660;29;20122;-86
2022/11/21 10:50:30;;;;;;;14.95;8.70;;;3.20;99.90;;;;;;4816691;29;20054;-87
2022/11/21 10:56:00;;;;;;;16.48;9.38;;;3.50;99.90;;;;;;4800011;29;20085;-88
2022/11/21 10:58:42;;;;;;;15.43;8.65;;;3.70;99.90;;;;;;4800062;29;20602;-86
2022/11/21 11:01:29;;;;;;;15.23;9.23;;;3.40;99.90;;;;;;4782819;29;20087;-86
2022/11/21 11:04:12;;;;;;;15.85;8.95;;;3.70;99.90;;;;;;4803816;29;20058;-86
2022/11/21 11:06:45;;;;;;;15.73;9.35;;;3.50;99.90;;;;;;4804787;29;20109;-86
2022/11/21 11:09:34;;;;;;;15.10;8.73;;;5.50;99.90;;;;;;4786519;29;20050;-86
2022/11/21 11:15:26;;;;;;;14.95;9.52;;;5.50;99.90;;;;;;4766923;29;20379;-86
2022/11/21 11:18:03;;;;;;;13.35;8.48;;;4.00;99.90;;;;;;4785167;29;20050;-86
2022/11/21 11:20:43;;;;;;;15.85;9.00;;;3.70;99.90;;;;;;4780047;29;20057;-87
2022/11/21 11:23:18;;;;;;;18.05;9.77;;;3.80;99.90;;;;;;4781475;29;20404;-86
2022/11/21 11:25:50;;;;;;;15.20;8.87;;;3.80;99.90;;;;;;4797694;29;20054;-85
2022/11/21 11:28:18;;;;;;;15.52;9.45;;;5.10;99.90;;;;;;4801136;29;20050;-87
2022/11/21 11:30:44;;;;;;;17.15;9.48;;;2.80;99.90;;;;;;4785402;29;20598;-86
2022/11/21 11:33:32;;;;;;;16.85;10.27;;;5.80;99.90;;;;;;4783332;29;20457;-85
2022/11/21 11:36:14;;;;;;;15.63;9.70;;;3.90;99.90;;;;;;4786000;29;20055;-85
2022/11/21 11:38:53;;;;;;;17.45;9.70;;;3.90;99.90;;;;;;4800532;29;20058;-86
2022/11/21 11:41:29;;;;;;;19.73;10.15;;;3.80;99.90;;;;;;4787264;29;20540;-86
2022/11/21 11:47:29;;;;;;;18.67;10.10;;;4.00;99.90;;;;;;4784058;29;20050;-86
2022/11/21 11:50:13;;;;;;;20.55;11.35;;;3.90;99.90;;;;;;4801585;29;20373;-86
2022/11/21 11:52:56;;;;;;;15.68;9.25;;;4.20;99.90;;;;;;4787799;29;20058;-86
2022/11/21 11:55:43;;;;;;;18.40;10.18;;;4.10;99.90;;;;;;4791210;29;20405;-86
2022/11/21 11:58:29;;;;;;;20.10;11.60;;;6.00;99.90;;;;;;4796857;29;20059;-86
2022/11/21 12:01:02;;;;;;;21.80;11.25;;;4.00;99.90;;;;;;4800226;29;20058;-87
2022/11/21 12:03:35;;;;;;;20.00;11.32;;;4.00;99.90;;;;;;4802878;29;20497;-85
2022/11/21 12:06:26;;;;;;;22.48;12.52;;;4.20;99.90;;;;;;4786286;29;20222;-87
2022/11/21 12:09:18;;;;;;;19.85;11.35;;;4.10;99.90;;;;;;4744140;29;20620;-86
2022/11/21 12:12:07;;;;;;;19.60;11.48;;;4.40;99.90;;;;;;4785629;29;20520;-86
2022/11/21 12:17:40;;;;;;;21.55;11.18;;;4.10;99.90;;;;;;4800523;29;20054;-85
2022/11/21 12:20:14;;;;;;;19.15;11.52;;;2.50;99.90;;;;;;4796011;29;20143;-87
2022/11/21 12:22:43;;;;;;;18.40;11.07;;;4.30;99.90;;;;;;4800564;29;20323;-85
2022/11/21 12:25:11;;;;;;;21.02;12.48;;;4.30;99.90;;;;;;4801727;29;20042;-86
2022/11/21 12:27:44;;;;;;;18.75;10.73;;;4.30;99.90;;;;;;4803020;29;20493;-86
2022/11/21 12:30:54;;;;;;;20.35;11.27;;;4.50;99.90;;;;;;4785206;29;20094;-86
2022/11/21 12:33:22;;;;;;;20.15;11.13;;;4.20;99.90;;;;;;4775077;29;20676;-85
2022/11/21 12:36:26;;;;;;;17.77;10.65;;;4.30;99.90;;;;;;4798530;29;20051;-87
2022/11/21 12:39:25;;;;;;;18.80;11.02;;;5.40;99.90;;;;;;4785581;29;20633;-86
2022/11/21 12:45:26;;;;;;;18.70;10.90;;;4.30;99.90;;;;;;4798937;29;20062;-87
2022/11/21 12:54:39;;;;;;;18.27;11.05;;;4.50;99.90;;;;;;4795737;29;20050;-86
2022/11/21 12:57:19;;;;;;;19.25;11.68;;;3.30;99.90;;;;;;4753447;29;20269;-86
2022/11/21 12:59:48;;;;;;;19.52;10.60;;;4.20;99.90;;;;;;4800317;29;20062;-86
2022/11/21 13:02:53;;;;;;;21.02;11.18;;;4.20;99.90;;;;;;4781477;29;21669;-85
2022/11/21 13:05:42;;;;;;;18.70;11.13;;;4.10;99.90;;;;;;4788352;29;20058;-86
2022/11/21 13:08:24;;;;;;;20.33;11.60;;;4.90;99.90;;;;;;4784226;29;20073;-85
2022/11/21 13:14:05;;;;;;;22.15;11.77;;;4.40;99.90;;;;;;4794181;29;20053;-86
2022/11/21 13:16:35;;;;;;;18.90;12.38;;;4.60;99.90;;;;;;4798231;29;20138;-85
2022/11/21 13:19:35;;;;;;;20.67;12.18;;;4.60;99.90;;;;;;4797189;29;20082;-87
2022/11/21 13:22:01;;;;;;;21.88;12.45;;;4.60;99.90;;;;;;4795202;29;20093;-86
2022/11/21 13:24:51;;;;;;;21.20;12.82;;;6.30;99.90;;;;;;4797166;29;20134;-86
2022/11/21 13:27:30;;;;;;;21.50;11.35;;;2.70;99.90;;;;;;4782521;29;20489;-86
2022/11/21 13:30:21;;;;;;;25.83;13.30;;;5.80;99.90;;;;;;4796988;29;20255;-86
2022/11/21 13:32:50;;;;;;;22.73;12.43;;;4.30;99.90;;;;;;4773767;29;20147;-87
2022/11/21 13:35:19;;;;;;;26.98;13.80;;;3.00;99.90;;;;;;4794647;29;20054;-87
2022/11/21 13:37:48;;;;;;;25.23;12.88;;;5.30;99.90;;;;;;4797218;29;20047;-86